createdAt,value
2023-01-11T00:00:31.055Z,97820.78
2023-01-11T00:02:39.283Z,97816.94
2023-01-11T00:04:47.746Z,97804.97
2023-01-11T00:06:58.989Z,97804.56
2023-01-11T00:09:06.967Z,97799.44
2023-01-11T00:11:17.793Z,97799.59
2023-01-11T00:13:26.119Z,97795.88
2023-01-11T00:15:34.394Z,97784.91
2023-01-11T00:17:42.753Z,97779.97
2023-01-11T00:19:51.002Z,97790.13
2023-01-11T00:22:02.107Z,97789.88
2023-01-11T00:24:10.587Z,97791.75
2023-01-11T00:26:18.912Z,97790.03
2023-01-11T00:28:29.255Z,97782.63
2023-01-11T00:30:39.147Z,97786.28
2023-01-11T00:32:47.229Z,97788.34
2023-01-11T00:34:55.225Z,97777.78
2023-01-11T00:37:05.899Z,97780.06
2023-01-11T00:39:14.078Z,97771.56
2023-01-11T00:41:34.903Z,97776.03
2023-01-11T00:43:55.497Z,97768.72
2023-01-11T00:46:16.072Z,97757.66
2023-01-11T00:48:24.099Z,97751.31
2023-01-11T00:50:37.283Z,97753.81
2023-01-11T00:52:48.302Z,97746.66
2023-01-11T00:54:56.698Z,97740.44
2023-01-11T00:57:06.605Z,97744.19
2023-01-11T00:59:14.609Z,97748.66
2023-01-11T01:01:22.734Z,97747.28
2023-01-11T01:03:30.714Z,97745.72
2023-01-11T01:05:41.170Z,97737.59
2023-01-11T01:07:52.823Z,97736.50
2023-01-11T01:10:00.964Z,97738.13
2023-01-11T01:12:10.249Z,97730.69
2023-01-11T01:14:29.559Z,97728.34
2023-01-11T01:16:38.892Z,97727.56
2023-01-11T01:18:46.817Z,97725.88
2023-01-11T01:20:55.025Z,97731.94
2023-01-11T01:23:06.007Z,97721.53
2023-01-11T01:25:14.100Z,97719.34
2023-01-11T01:27:22.048Z,97726.63
2023-01-11T01:29:30.241Z,97726.94
2023-01-11T01:31:38.491Z,97721.59
2023-01-11T01:33:46.385Z,97726.72
2023-01-11T01:36:02.437Z,97724.94
2023-01-11T01:38:13.095Z,97728.50
2023-01-11T01:40:22.911Z,97728.06
2023-01-11T01:42:32.321Z,97729.75
2023-01-11T01:44:58.080Z,97740.72
2023-01-11T01:47:09.138Z,97730.84
2023-01-11T01:49:19.274Z,97739.16
2023-01-11T01:51:31.265Z,97725.88
2023-01-11T01:53:46.043Z,97716.63
2023-01-11T01:55:58.323Z,97710.88
2023-01-11T01:58:13.363Z,97706.84
2023-01-11T02:00:22.682Z,97696.41
2023-01-11T02:02:28.572Z,97682.34
2023-01-11T02:04:40.526Z,97688.97
2023-01-11T02:06:49.037Z,97691.63
2023-01-11T02:09:04.715Z,97683.78
2023-01-11T02:11:29.782Z,97692.69
2023-01-11T02:13:46.334Z,97686.34
2023-01-11T02:16:08.152Z,97677.47
2023-01-11T02:18:19.805Z,97671.16
2023-01-11T02:20:38.697Z,97660.63
2023-01-11T02:23:12.541Z,97662.38
2023-01-11T02:25:47.587Z,97663.00
2023-01-11T02:28:10.406Z,97670.16
2023-01-11T02:30:27.400Z,97665.50
2023-01-11T02:32:43.455Z,97669.34
2023-01-11T02:35:03.038Z,97664.94
2023-01-11T02:37:23.435Z,97653.28
2023-01-11T02:39:35.788Z,97648.78
2023-01-11T02:42:05.524Z,97651.56
2023-01-11T02:44:44.131Z,97643.25
2023-01-11T02:46:58.237Z,97643.56
2023-01-11T02:49:15.792Z,97642.63
2023-01-11T02:51:31.542Z,97644.84
2023-01-11T02:53:42.816Z,97632.97
2023-01-11T02:56:04.593Z,97641.66
2023-01-11T02:58:15.403Z,97643.44
2023-01-11T03:00:27.027Z,97642.00
2023-01-11T03:02:35.276Z,97648.13
2023-01-11T03:04:43.275Z,97634.88
2023-01-11T03:06:52.012Z,97634.88
2023-01-11T03:09:23.517Z,97642.81
2023-01-11T03:11:57.792Z,97649.47
2023-01-11T03:14:19.775Z,97644.97
2023-01-11T03:16:38.855Z,97639.66
2023-01-11T03:18:56.609Z,97643.56
2023-01-11T03:21:17.544Z,97637.28
2023-01-11T03:23:32.651Z,97642.81
2023-01-11T03:26:05.126Z,97648.00
2023-01-11T03:28:20.123Z,97653.28
2023-01-11T03:30:36.309Z,97639.84
2023-01-11T03:32:50.666Z,97639.66
2023-01-11T03:35:11.157Z,97648.84
2023-01-11T03:37:26.176Z,97646.91
2023-01-11T03:39:39.015Z,97644.97
2023-01-11T03:41:49.014Z,97650.09
2023-01-11T03:43:59.574Z,97643.19
2023-01-11T03:46:11.488Z,97637.53
2023-01-11T03:48:27.281Z,97637.75
2023-01-11T03:50:36.987Z,97640.06
2023-01-11T03:52:46.553Z,97630.00
2023-01-11T03:54:55.114Z,97640.09
2023-01-11T03:57:08.907Z,97624.66
2023-01-11T03:59:17.250Z,97630.69
2023-01-11T04:01:25.451Z,97618.97
2023-01-11T04:03:36.482Z,97617.56
2023-01-11T04:05:47.812Z,97616.84
2023-01-11T04:07:56.943Z,97604.72
2023-01-11T04:10:05.042Z,97605.88
2023-01-11T04:12:13.145Z,97599.66
2023-01-11T04:14:21.119Z,97592.53
2023-01-11T04:16:29.217Z,97592.84
2023-01-11T04:18:39.977Z,97587.63
2023-01-11T04:20:49.921Z,97593.53
2023-01-11T04:22:58.138Z,97585.47
2023-01-11T04:25:06.553Z,97592.53
2023-01-11T04:27:14.641Z,97590.66
2023-01-11T04:29:22.752Z,97589.09
2023-01-11T04:31:30.814Z,97584.31
2023-01-11T04:33:42.102Z,97586.97
2023-01-11T04:35:50.797Z,97573.94
2023-01-11T04:37:59.269Z,97567.09
2023-01-11T04:40:08.438Z,97572.00
2023-01-11T04:42:19.442Z,97571.06
2023-01-11T04:44:28.074Z,97575.94
2023-01-11T04:46:35.988Z,97583.34
2023-01-11T04:48:46.543Z,97585.53
2023-01-11T04:50:54.974Z,97582.13
2023-01-11T04:53:03.128Z,97584.66
2023-01-11T04:55:12.132Z,97585.75
2023-01-11T04:57:20.206Z,97576.09
2023-01-11T04:59:28.580Z,97573.53
2023-01-11T05:01:36.924Z,97570.09
2023-01-11T05:03:48.133Z,97569.16
2023-01-11T05:05:59.771Z,97564.06
2023-01-11T05:08:07.964Z,97559.00
2023-01-11T05:10:16.617Z,97555.09
2023-01-11T05:12:24.965Z,97551.16
2023-01-11T05:14:33.227Z,97544.25
2023-01-11T05:16:41.286Z,97539.34
2023-01-11T05:18:55.351Z,97533.25
2023-01-11T05:21:03.741Z,97539.91
2023-01-11T05:23:11.785Z,97541.78
2023-01-11T05:25:19.989Z,97538.38
2023-01-11T05:27:27.976Z,97546.31
2023-01-11T05:29:36.026Z,97536.06
2023-01-11T05:31:44.177Z,97539.50
2023-01-11T05:33:55.154Z,97533.53
2023-01-11T05:36:04.486Z,97533.84
2023-01-11T05:38:12.460Z,97532.91
2023-01-11T05:40:21.046Z,97533.25
2023-01-11T05:42:29.104Z,97531.34
2023-01-11T05:44:49.764Z,97534.00
2023-01-11T05:46:58.325Z,97533.53
2023-01-11T05:49:09.609Z,97541.31
2023-01-11T05:51:18.146Z,97542.41
2023-01-11T05:53:27.294Z,97544.81
2023-01-11T05:55:35.608Z,97546.13
2023-01-11T05:57:44.362Z,97541.16
2023-01-11T05:59:52.364Z,97543.38
2023-01-11T06:02:00.430Z,97540.03
2023-01-11T06:04:11.334Z,97535.94
2023-01-11T06:06:20.935Z,97540.59
2023-01-11T06:08:29.584Z,97542.03
2023-01-11T06:10:37.830Z,97532.63
2023-01-11T06:12:48.389Z,97530.44
2023-01-11T06:14:56.461Z,97529.38
2023-01-11T06:17:05.295Z,97515.59
2023-01-11T06:19:16.070Z,97514.38
2023-01-11T06:21:25.949Z,97510.09
2023-01-11T06:23:36.138Z,97504.94
2023-01-11T06:25:45.354Z,97493.53
2023-01-11T06:27:53.400Z,97477.78
2023-01-11T06:30:06.906Z,97476.94
2023-01-11T06:32:16.960Z,97477.63
2023-01-11T06:34:29.256Z,97481.38
2023-01-11T06:36:37.286Z,97473.91
2023-01-11T06:38:46.407Z,97480.66
2023-01-11T06:40:56.930Z,97477.50
2023-01-11T06:43:05.520Z,97477.78
2023-01-11T06:45:15.112Z,97488.53
2023-01-11T06:47:25.737Z,97498.38
2023-01-11T06:49:36.511Z,97488.75
2023-01-11T06:51:44.532Z,97488.84
2023-01-11T06:53:53.067Z,97489.69
2023-01-11T06:56:01.999Z,97484.41
2023-01-11T06:58:10.465Z,97485.88
2023-01-11T07:00:19.248Z,97479.81
2023-01-11T07:02:27.287Z,97472.69
2023-01-11T07:04:38.020Z,97479.97
2023-01-11T07:06:46.071Z,97471.59
2023-01-11T07:08:54.296Z,97465.69
2023-01-11T07:11:02.411Z,97460.41
2023-01-11T07:13:10.400Z,97458.09
2023-01-11T07:15:19.969Z,97462.75
2023-01-11T07:17:28.626Z,97462.03
2023-01-11T07:19:55.566Z,97460.19
2023-01-11T07:22:03.527Z,97450.63
2023-01-11T07:24:11.597Z,97451.81
2023-01-11T07:26:19.711Z,97454.38
2023-01-11T07:28:31.014Z,97449.53
2023-01-11T07:30:56.894Z,97445.91
2023-01-11T07:33:07.773Z,97444.50
2023-01-11T07:35:18.538Z,97447.66
2023-01-11T07:37:29.621Z,97449.31
2023-01-11T07:39:43.299Z,97443.78
2023-01-11T07:42:04.178Z,97446.94
2023-01-11T07:44:12.120Z,97456.56
2023-01-11T07:46:20.449Z,97459.13
2023-01-11T07:48:28.449Z,97457.25
2023-01-11T07:50:39.841Z,97452.63
2023-01-11T07:52:53.203Z,97455.97
2023-01-11T07:55:02.929Z,97462.66
2023-01-11T07:57:11.501Z,97476.72
2023-01-11T07:59:19.654Z,97471.94
2023-01-11T08:01:28.105Z,97482.78
2023-01-11T08:03:36.385Z,97486.47
2023-01-11T08:05:47.026Z,97482.72
2023-01-11T08:07:55.009Z,97484.47
2023-01-11T08:10:03.582Z,97482.63
2023-01-11T08:12:24.085Z,97479.72
2023-01-11T08:14:44.505Z,97488.50
2023-01-11T08:16:52.952Z,97490.38
2023-01-11T08:19:03.519Z,97497.13
2023-01-11T08:21:14.927Z,97504.47
2023-01-11T08:23:23.108Z,97504.03
2023-01-11T08:25:31.371Z,97506.16
2023-01-11T08:27:40.742Z,97510.03
2023-01-11T08:29:50.844Z,97508.00
2023-01-11T08:31:59.506Z,97504.81
2023-01-11T08:34:07.498Z,97505.56
2023-01-11T08:36:18.345Z,97507.63
2023-01-11T08:38:26.327Z,97508.47
2023-01-11T08:40:34.425Z,97504.28
2023-01-11T08:42:42.766Z,97508.59
2023-01-11T08:44:50.718Z,97507.75
2023-01-11T08:46:59.197Z,97515.59
2023-01-11T08:49:12.289Z,97517.53
2023-01-11T08:51:23.323Z,97520.56
2023-01-11T08:53:31.313Z,97518.75
2023-01-11T08:55:41.912Z,97523.88
2023-01-11T08:57:50.352Z,97517.31
2023-01-11T08:59:59.007Z,97518.66
2023-01-11T09:02:10.365Z,97508.25
2023-01-11T09:04:25.260Z,97502.41
2023-01-11T09:06:36.303Z,97507.81
2023-01-11T09:08:46.070Z,97502.31
2023-01-11T09:10:56.761Z,97509.03
2023-01-11T09:13:05.181Z,97508.09
2023-01-11T09:15:15.838Z,97504.59
2023-01-11T09:17:23.965Z,97504.88
2023-01-11T09:19:33.583Z,97510.28
2023-01-11T09:21:44.416Z,97507.91
2023-01-11T09:23:52.671Z,97499.50
2023-01-11T09:26:00.510Z,97499.50
2023-01-11T09:28:08.549Z,97499.91
2023-01-11T09:30:20.299Z,97507.06
2023-01-11T09:32:28.192Z,97510.69
2023-01-11T09:34:36.231Z,97512.69
2023-01-11T09:36:48.933Z,97514.28
2023-01-11T09:39:00.460Z,97513.47
2023-01-11T09:41:23.657Z,97511.75
2023-01-11T09:43:33.473Z,97504.56
2023-01-11T09:45:46.952Z,97507.69
2023-01-11T09:48:03.595Z,97506.53
2023-01-11T09:50:18.858Z,97501.03
2023-01-11T09:52:36.400Z,97501.97
2023-01-11T09:54:45.487Z,97504.25
2023-01-11T09:57:02.389Z,97505.19
2023-01-11T09:59:20.935Z,97497.22
2023-01-11T10:01:36.597Z,97503.19
2023-01-11T10:04:26.028Z,97495.13
2023-01-11T10:06:44.428Z,97493.31
2023-01-11T10:18:23.743Z,97494.25
2023-01-11T10:18:37.592Z,97492.47
2023-01-11T10:19:40.596Z,97495.38
2023-01-11T10:21:54.770Z,97494.16
2023-01-11T10:24:11.666Z,97491.69
2023-01-11T10:26:28.539Z,97488.56
2023-01-11T10:28:47.061Z,97498.63
2023-01-11T10:31:11.380Z,97484.09
2023-01-11T10:33:38.595Z,97492.78
2023-01-11T10:36:10.736Z,97482.56
2023-01-11T10:38:45.008Z,97482.19
2023-01-11T10:41:08.563Z,97484.59
2023-01-11T10:43:22.760Z,97479.63
2023-01-11T10:45:40.130Z,97477.31
2023-01-11T10:48:01.520Z,97478.00
2023-01-11T10:50:22.391Z,97478.97
2023-01-11T10:52:40.468Z,97483.78
2023-01-11T10:54:54.798Z,97483.97
2023-01-11T10:57:16.052Z,97484.72
2023-01-11T10:59:41.289Z,97477.50
2023-01-11T11:01:57.479Z,97483.25
2023-01-11T11:04:25.616Z,97479.50
2023-01-11T11:06:42.594Z,97477.81
2023-01-11T11:08:57.222Z,97475.38
2023-01-11T11:11:10.996Z,97474.13
2023-01-11T11:13:30.120Z,97466.88
2023-01-11T11:15:42.039Z,97473.56
2023-01-11T11:17:54.215Z,97464.09
2023-01-11T11:20:02.141Z,97469.94
2023-01-11T11:22:12.791Z,97465.94
2023-01-11T11:24:27.939Z,97462.41
2023-01-11T11:26:39.063Z,97454.66
2023-01-11T11:29:11.588Z,97458.16
2023-01-11T11:31:19.793Z,97457.84
2023-01-11T11:33:34.860Z,97444.88
2023-01-11T11:35:46.437Z,97441.38
2023-01-11T11:37:57.684Z,97442.75
2023-01-11T11:40:07.366Z,97440.63
2023-01-11T11:42:21.330Z,97429.25
2023-01-11T11:44:31.985Z,97434.94
2023-01-11T11:46:40.069Z,97437.00
2023-01-11T11:49:08.663Z,97433.38
2023-01-11T11:51:23.439Z,97444.59
2023-01-11T11:53:39.185Z,97439.06
2023-01-11T11:55:47.098Z,97446.53
2023-01-11T11:57:55.898Z,97435.00
2023-01-11T12:00:10.149Z,97440.09
2023-01-11T12:02:27.362Z,97434.09
2023-01-11T12:04:48.869Z,97427.00
2023-01-11T12:07:09.786Z,97435.84
2023-01-11T12:09:31.255Z,97428.00
2023-01-11T12:11:43.050Z,97423.75
2023-01-11T12:14:03.781Z,97423.88
2023-01-11T12:16:25.665Z,97417.06
2023-01-11T12:18:41.610Z,97422.81
2023-01-11T12:20:49.716Z,97423.19
2023-01-11T12:23:15.281Z,97411.69
2023-01-11T12:25:27.007Z,97408.06
2023-01-11T12:27:43.638Z,97414.75
2023-01-11T12:30:08.430Z,97414.09
2023-01-11T12:32:46.351Z,97417.09
2023-01-11T12:35:16.973Z,97417.41
2023-01-11T12:37:37.996Z,97413.91
2023-01-11T12:39:52.874Z,97412.97
2023-01-11T12:42:17.942Z,97417.00
2023-01-11T12:44:55.110Z,97421.56
2023-01-11T12:47:21.400Z,97420.97
2023-01-11T12:49:41.516Z,97411.75
2023-01-11T12:52:06.600Z,97422.72
2023-01-11T12:54:40.548Z,97423.09
2023-01-11T12:57:07.347Z,97415.53
2023-01-11T12:59:30.194Z,97416.16
2023-01-11T13:01:43.944Z,97419.44
2023-01-11T13:04:21.619Z,97426.25
2023-01-11T13:06:38.705Z,97426.47
2023-01-11T13:09:00.470Z,97424.47
2023-01-11T13:11:35.315Z,97419.91
2023-01-11T13:13:56.316Z,97422.13
2023-01-11T13:16:13.491Z,97418.41
2023-01-11T13:18:32.973Z,97421.50
2023-01-11T13:21:00.462Z,97418.19
2023-01-11T13:23:18.652Z,97422.31
2023-01-11T13:25:30.329Z,97420.97
2023-01-11T13:27:38.369Z,97419.34
2023-01-11T13:29:48.714Z,97420.22
2023-01-11T13:32:00.472Z,97414.69
2023-01-11T13:34:17.364Z,97419.88
2023-01-11T13:36:28.763Z,97419.16
2023-01-11T13:38:46.814Z,97422.09
2023-01-11T13:40:59.846Z,97412.56
2023-01-11T13:43:13.054Z,97413.72
2023-01-11T13:45:25.504Z,97422.97
2023-01-11T13:47:41.222Z,97420.00
2023-01-11T13:49:59.704Z,97428.06
2023-01-11T13:52:15.268Z,97430.19
2023-01-11T13:54:30.443Z,97436.03
2023-01-11T13:56:44.298Z,97433.41
2023-01-11T13:58:58.976Z,97433.28
2023-01-11T14:01:12.331Z,97430.41
2023-01-11T14:03:32.108Z,97430.09
2023-01-11T14:05:47.658Z,97441.25
2023-01-11T14:08:10.303Z,97450.72
2023-01-11T14:10:33.751Z,97446.84
2023-01-11T14:12:58.991Z,97447.50
2023-01-11T14:15:31.580Z,97450.59
2023-01-11T14:17:58.875Z,97458.44
2023-01-11T14:20:17.600Z,97472.19
2023-01-11T14:22:32.976Z,97479.13
2023-01-11T14:24:47.577Z,97477.59
2023-01-11T14:27:12.417Z,97490.06
2023-01-11T14:29:40.304Z,97505.16
2023-01-11T14:32:14.600Z,97500.88
2023-01-11T14:34:58.811Z,97504.16
2023-01-11T14:37:45.915Z,97509.72
2023-01-11T14:40:26.504Z,97517.78
2023-01-11T14:43:06.134Z,97530.56
2023-01-11T14:45:27.123Z,97538.75
2023-01-11T14:47:47.941Z,97538.22
2023-01-11T14:50:06.859Z,97540.78
2023-01-11T14:52:34.434Z,97548.00
2023-01-11T14:54:48.239Z,97557.13
2023-01-11T14:56:58.030Z,97553.50
2023-01-11T14:59:24.084Z,97561.47
2023-01-11T15:01:32.186Z,97562.28
2023-01-11T15:03:52.160Z,97562.78
2023-01-11T15:06:03.820Z,97567.81
2023-01-11T15:08:25.289Z,97573.66
2023-01-11T15:10:50.333Z,97570.47
2023-01-11T15:12:59.548Z,97578.13
2023-01-11T15:15:19.987Z,97588.88
2023-01-11T15:17:42.719Z,97585.22
2023-01-11T15:19:53.366Z,97599.09
2023-01-11T15:22:03.413Z,97599.34
2023-01-11T15:24:26.325Z,97595.97
2023-01-11T15:26:34.497Z,97597.38
2023-01-11T15:28:49.860Z,97603.41
2023-01-11T15:31:00.473Z,97609.75
2023-01-11T15:33:32.313Z,97617.91
2023-01-11T15:35:40.336Z,97617.66
2023-01-11T15:37:57.867Z,97627.78
2023-01-11T15:40:12.779Z,97622.69
2023-01-11T15:43:11.416Z,97634.63
2023-01-11T15:46:02.213Z,97628.66
2023-01-11T15:48:28.501Z,97635.19
2023-01-11T15:50:54.729Z,97639.09
2023-01-11T15:53:41.239Z,97638.88
2023-01-11T15:56:15.837Z,97662.38
2023-01-11T15:59:11.376Z,97666.56
2023-01-11T16:01:28.397Z,97678.41
2023-01-11T16:04:08.147Z,97672.03
2023-01-11T16:06:24.203Z,97674.78
2023-01-11T16:08:41.458Z,97685.84
2023-01-11T16:11:03.518Z,97686.69
2023-01-11T16:13:41.982Z,97692.56
2023-01-11T16:16:03.268Z,97696.47
2023-01-11T16:18:17.565Z,97692.94
2023-01-11T16:20:51.538Z,97707.13
2023-01-11T16:23:03.029Z,97720.63
2023-01-11T16:25:17.569Z,97718.78
2023-01-11T16:27:28.689Z,97732.44
2023-01-11T16:29:38.726Z,97736.41
2023-01-11T16:31:58.941Z,97737.47
2023-01-11T16:34:20.717Z,97738.78
2023-01-11T16:36:31.103Z,97757.56
2023-01-11T16:38:47.345Z,97756.84
2023-01-11T16:40:58.697Z,97755.97
2023-01-11T16:43:11.257Z,97766.66
2023-01-11T16:45:25.133Z,97767.19
2023-01-11T16:47:33.015Z,97766.78
2023-01-11T16:49:42.383Z,97760.03
2023-01-11T16:51:59.488Z,97767.63
2023-01-11T16:54:07.967Z,97761.31
2023-01-11T16:56:19.590Z,97760.72
2023-01-11T16:58:32.145Z,97765.69
2023-01-11T17:00:43.465Z,97770.63
2023-01-11T17:02:51.879Z,97772.00
2023-01-11T17:05:00.728Z,97771.13
2023-01-11T17:07:23.099Z,97778.25
2023-01-11T17:09:30.930Z,97786.03
2023-01-11T17:11:47.236Z,97784.03
2023-01-11T17:14:31.118Z,97789.31
2023-01-11T17:16:42.594Z,97804.38
2023-01-11T17:18:51.040Z,97803.41
2023-01-11T17:21:02.607Z,97806.25
2023-01-11T17:23:18.371Z,97811.00
2023-01-11T17:25:41.086Z,97803.34
2023-01-11T17:27:57.874Z,97811.00
2023-01-11T17:30:07.811Z,97818.66
2023-01-11T17:32:21.335Z,97818.91
2023-01-11T17:34:35.036Z,97819.59
2023-01-11T17:36:45.028Z,97809.50
2023-01-11T17:38:55.898Z,97817.34
2023-01-11T17:41:32.726Z,97828.41
2023-01-11T17:43:53.165Z,97825.44
2023-01-11T17:46:02.270Z,97835.25
2023-01-11T17:48:16.305Z,97839.66
2023-01-11T17:50:28.130Z,97839.22
2023-01-11T17:52:53.820Z,97838.84
2023-01-11T17:55:21.600Z,97854.72
2023-01-11T17:57:29.558Z,97859.28
2023-01-11T17:59:37.578Z,97856.34
2023-01-11T18:01:49.867Z,97862.47
2023-01-11T18:03:59.865Z,97863.56
2023-01-11T18:06:14.128Z,97862.91
2023-01-11T18:08:23.892Z,97859.22
2023-01-11T18:10:39.329Z,97860.41
2023-01-11T18:12:47.842Z,97869.34
2023-01-11T18:14:59.767Z,97864.06
2023-01-11T18:17:10.158Z,97867.31
2023-01-11T18:19:27.218Z,97866.19
2023-01-11T18:21:43.054Z,97873.03
2023-01-11T18:23:51.368Z,97882.31
2023-01-11T18:26:34.965Z,97892.97
2023-01-11T18:28:45.963Z,97895.53
2023-01-11T18:30:58.041Z,97892.47
2023-01-11T18:33:13.207Z,97873.66
2023-01-11T18:35:21.333Z,97863.06
2023-01-11T18:37:29.512Z,97865.31
2023-01-11T18:39:38.523Z,97868.78
2023-01-11T18:42:11.012Z,97864.91
2023-01-11T18:44:21.544Z,97860.22
2023-01-11T18:46:29.956Z,97863.03
2023-01-11T18:48:38.840Z,97858.63
2023-01-11T18:50:48.382Z,97856.31
2023-01-11T18:52:57.873Z,97852.19
2023-01-11T18:55:07.220Z,97859.59
2023-01-11T18:57:15.118Z,97856.97
2023-01-11T18:59:28.928Z,97867.00
2023-01-11T19:01:52.743Z,97859.88
2023-01-11T19:04:07.656Z,97869.72
2023-01-11T19:06:19.637Z,97868.66
2023-01-11T19:08:30.150Z,97865.00
2023-01-11T19:10:40.794Z,97870.78
2023-01-11T19:12:49.330Z,97865.94
2023-01-11T19:15:00.258Z,97880.00
2023-01-11T19:17:10.425Z,97887.50
2023-01-11T19:19:18.906Z,97890.09
2023-01-11T19:21:26.806Z,97903.22
2023-01-11T19:23:35.329Z,97898.00
2023-01-11T19:25:43.142Z,97899.47
2023-01-11T19:27:51.690Z,97902.25
2023-01-11T19:30:03.077Z,97910.09
2023-01-11T19:32:11.099Z,97912.06
2023-01-11T19:34:19.153Z,97914.72
2023-01-11T19:36:29.238Z,97914.19
2023-01-11T19:38:39.903Z,97920.53
2023-01-11T19:40:50.349Z,97911.94
2023-01-11T19:42:58.708Z,97913.56
2023-01-11T19:45:10.798Z,97906.88
2023-01-11T19:47:19.007Z,97918.88
2023-01-11T19:49:27.496Z,97933.78
2023-01-11T19:51:35.440Z,97935.88
2023-01-11T19:53:43.435Z,97942.13
2023-01-11T19:55:51.383Z,97939.50
2023-01-11T19:57:59.236Z,97935.59
2023-01-11T20:00:14.375Z,97943.31
2023-01-11T20:02:24.617Z,97944.28
2023-01-11T20:04:35.171Z,97935.22
2023-01-11T20:06:50.285Z,97943.78
2023-01-11T20:08:58.658Z,97941.00
2023-01-11T20:11:10.947Z,97943.94
2023-01-11T20:13:19.040Z,97941.13
2023-01-11T20:15:29.657Z,97938.47
2023-01-11T20:17:38.634Z,97951.00
2023-01-11T20:19:48.086Z,97957.47
2023-01-11T20:21:56.615Z,97948.75
2023-01-11T20:24:04.828Z,97949.91
2023-01-11T20:26:15.421Z,97954.31
2023-01-11T20:28:24.035Z,97959.63
2023-01-11T20:30:34.922Z,97961.13
2023-01-11T20:32:42.883Z,97961.59
2023-01-11T20:34:50.906Z,97967.16
2023-01-11T20:36:58.997Z,97958.00
2023-01-11T20:39:07.343Z,97959.97
2023-01-11T20:41:37.989Z,97960.19
2023-01-11T20:43:46.001Z,97956.03
2023-01-11T20:46:00.541Z,97962.69
2023-01-11T20:48:09.403Z,97950.63
2023-01-11T20:50:17.811Z,97947.44
2023-01-11T20:52:25.724Z,97964.41
2023-01-11T20:54:33.871Z,97957.88
2023-01-11T20:56:42.466Z,97952.97
2023-01-11T20:58:51.616Z,97953.44
2023-01-11T21:01:06.513Z,97949.28
2023-01-11T21:03:14.317Z,97940.84
2023-01-11T21:05:26.882Z,97946.47
2023-01-11T21:07:38.236Z,97944.72
2023-01-11T21:09:46.185Z,97950.41
2023-01-11T21:11:56.001Z,97943.84
2023-01-11T21:14:07.852Z,97944.00
2023-01-11T21:16:22.680Z,97943.44
2023-01-11T21:18:33.634Z,97951.97
2023-01-11T21:20:41.609Z,97952.97
2023-01-11T21:22:49.711Z,97953.22
2023-01-11T21:24:58.121Z,97953.88
2023-01-11T21:27:05.959Z,97949.06
2023-01-11T21:29:14.752Z,97956.88
2023-01-11T21:31:25.770Z,97966.13
2023-01-11T21:33:33.687Z,97960.22
2023-01-11T21:35:41.815Z,97954.06
2023-01-11T21:37:49.765Z,97955.19
2023-01-11T21:39:57.685Z,97948.53
2023-01-11T21:42:05.825Z,97953.31
2023-01-11T21:44:16.438Z,97956.13
2023-01-11T21:46:27.239Z,97967.91
2023-01-11T21:48:34.918Z,97976.94
2023-01-11T21:50:42.814Z,97978.88
2023-01-11T21:52:50.691Z,97978.56
2023-01-11T21:54:58.997Z,97976.22
2023-01-11T21:57:08.243Z,97972.78
2023-01-11T21:59:17.171Z,97967.94
2023-01-11T22:01:27.686Z,97970.41
2023-01-11T22:03:35.713Z,97967.16
2023-01-11T22:05:43.507Z,97972.38
2023-01-11T22:07:52.187Z,97956.13
2023-01-11T22:10:04.813Z,97958.06
2023-01-11T22:12:13.187Z,97944.16
2023-01-11T22:14:21.232Z,97940.72
2023-01-11T22:16:32.949Z,97955.16
2023-01-11T22:18:41.508Z,97946.16
2023-01-11T22:20:49.412Z,97944.91
2023-01-11T22:22:58.011Z,97948.88
2023-01-11T22:25:06.683Z,97949.06
2023-01-11T22:27:14.601Z,97952.00
2023-01-11T22:29:23.540Z,97958.81
2023-01-11T22:31:36.101Z,97962.31
2023-01-11T22:33:43.914Z,97975.75
2023-01-11T22:35:57.575Z,97983.31
2023-01-11T22:38:05.806Z,97984.66
2023-01-11T22:40:15.485Z,97989.09
2023-01-11T22:42:23.680Z,97987.91
2023-01-11T22:44:31.453Z,97984.03
2023-01-11T22:46:42.121Z,97985.41
2023-01-11T22:48:50.935Z,97987.56
2023-01-11T22:50:58.671Z,97988.13
2023-01-11T22:53:06.548Z,97990.00
2023-01-11T22:55:14.510Z,97988.53
2023-01-11T22:57:22.521Z,97998.31
2023-01-11T22:59:31.219Z,97988.47
2023-01-11T23:01:46.289Z,97991.94
2023-01-11T23:03:55.719Z,97999.84
2023-01-11T23:06:06.109Z,97996.97
2023-01-11T23:08:14.234Z,98001.25
2023-01-11T23:10:22.339Z,98003.16
2023-01-11T23:12:42.523Z,98000.56
2023-01-11T23:14:50.633Z,98000.91
2023-01-11T23:17:03.665Z,97992.13
2023-01-11T23:19:12.706Z,97984.53
2023-01-11T23:21:20.642Z,97987.38
2023-01-11T23:23:30.157Z,97971.91
2023-01-11T23:25:38.210Z,97970.16
2023-01-11T23:27:46.473Z,97976.59
2023-01-11T23:29:54.389Z,97970.75
2023-01-11T23:32:04.855Z,97974.41
2023-01-11T23:34:16.219Z,97971.84
2023-01-11T23:36:25.829Z,97970.22
2023-01-11T23:38:35.573Z,97973.25
2023-01-11T23:40:56.206Z,97961.25
2023-01-11T23:43:03.948Z,97966.19
2023-01-11T23:45:12.910Z,97954.75
2023-01-11T23:47:25.243Z,97959.47
2023-01-11T23:49:34.675Z,97958.94
2023-01-11T23:51:42.525Z,97953.09
2023-01-11T23:53:50.395Z,97953.56
2023-01-11T23:55:58.806Z,97948.69
2023-01-11T23:58:12.289Z,97950.50
